Time;durP1;ratioP1;P1;durP2;ratioP2;P2;SDS_P1;SDS_P2;PMS_P1;PMS_P2;Temp;Humidity;BMP_temperature;BMP_pressure;BME280_temperature;BME280_humidity;BME280_pressure;Samples;Min_cycle;Max_cycle;Signal;HPM_P1;HPM_P2
2022/08/17 00:00:16;;;;;;;0.50;0.50;;;19.90;99.90;;;19.80;100.00;99865.84;4927255;28;20224;-66
2022/08/17 00:03:39;;;;;;;0.70;0.63;;;19.90;99.90;;;19.83;100.00;99848.75;4925622;28;20209;-66
2022/08/17 00:06:19;;;;;;;0.52;0.52;;;19.90;99.90;;;19.84;100.00;99845.16;4946040;28;20228;-65
2022/08/17 00:08:55;;;;;;;0.45;0.40;;;19.90;99.90;;;19.71;100.00;99849.22;4933073;28;20311;-66
2022/08/17 00:11:29;;;;;;;0.60;0.60;;;20.30;99.90;;;19.73;100.00;99860.78;4932904;28;20704;-65
2022/08/17 00:14:08;;;;;;;0.60;0.60;;;19.70;99.90;;;19.62;100.00;99853.13;4935016;28;20209;-65
2022/08/17 00:16:45;;;;;;;0.60;0.60;;;20.00;99.90;;;19.58;100.00;99853.31;4929822;28;20248;-66
2022/08/17 00:19:25;;;;;;;0.55;0.50;;;19.80;99.90;;;19.49;100.00;99852.66;4963944;28;20216;-66
2022/08/17 00:21:56;;;;;;;0.80;0.65;;;19.80;99.90;;;19.62;100.00;99879.97;4911809;28;20216;-65
2022/08/17 00:24:44;;;;;;;0.45;0.45;;;;;;;19.54;100.00;99881.16;4949481;28;20205;-65
2022/08/17 00:27:13;;;;;;;0.20;0.20;;;;;;;19.38;100.00;99856.66;4910937;28;20217;-66
2022/08/17 00:29:41;;;;;;;0.55;0.55;;;;;;;19.31;100.00;99860.47;4897826;28;20213;-66
2022/08/17 00:32:09;;;;;;;0.43;0.43;;;;;;;19.30;100.00;99848.88;4947659;28;20225;-66
2022/08/17 00:34:57;;;;;;;0.30;0.30;;;;;;;19.10;100.00;99846.03;4900051;28;20240;-65
2022/08/17 00:37:25;;;;;;;0.20;0.20;;;;;;;19.09;100.00;99857.69;4912349;28;20213;-66
2022/08/17 00:39:54;;;;;;;0.28;0.28;;;;;;;19.02;100.00;99861.50;4920560;28;20213;-66
2022/08/17 00:42:22;;;;;;;0.40;0.40;;;;;;;18.77;100.00;99856.97;4914851;28;20209;-65
2022/08/17 00:44:57;;;;;;;0.20;0.20;;;;;;;18.83;100.00;99863.94;4954409;28;20232;-65
2022/08/17 00:47:25;;;;;;;0.32;0.32;;;;;;;18.72;100.00;99860.75;4932403;28;20224;-65
2022/08/17 00:49:54;;;;;;;0.50;0.50;;;;;;;18.87;100.00;99857.53;4930589;28;20210;-65
2022/08/17 00:52:28;;;;;;;0.38;0.38;;;19.10;99.90;;;18.97;100.00;99844.72;4942998;28;20234;-66
2022/08/17 00:54:56;;;;;;;0.30;0.30;;;19.20;99.90;;;18.94;100.00;99848.38;4952387;28;20586;-66
2022/08/17 00:57:32;;;;;;;0.30;0.30;;;19.10;99.90;;;18.74;100.00;99854.41;4950774;28;20222;-65
2022/08/17 01:00:13;;;;;;;0.60;0.60;;;19.00;99.90;;;18.67;100.00;99862.69;4935877;28;20213;-65
2022/08/17 01:02:44;;;;;;;0.32;0.32;;;18.90;99.90;;;18.76;100.00;99870.44;4946129;28;20216;-66
2022/08/17 01:05:25;;;;;;;0.32;0.32;;;18.90;99.90;;;18.74;100.00;99864.25;4946772;28;20237;-66
2022/08/17 01:07:56;;;;;;;0.30;0.30;;;18.80;99.90;;;18.78;100.00;99852.50;4929730;28;20224;-65
2022/08/17 01:10:41;;;;;;;0.32;0.32;;;18.80;99.90;;;18.68;100.00;99857.28;4915589;28;20228;-65
2022/08/17 01:13:38;;;;;;;0.30;0.30;;;18.60;99.90;;;18.67;100.00;99860.03;4935006;28;20224;-65
2022/08/17 01:16:18;;;;;;;0.38;0.38;;;18.90;99.90;;;18.68;100.00;99859.97;4933776;28;20233;-65
2022/08/17 01:19:05;;;;;;;0.77;0.77;;;19.00;99.90;;;18.64;100.00;99874.38;4925089;28;20665;-66
2022/08/17 01:22:10;;;;;;;0.38;0.38;;;18.70;99.90;;;18.61;100.00;99876.25;4930895;28;20216;-65
2022/08/17 01:24:43;;;;;;;0.45;0.45;;;18.80;99.90;;;18.66;100.00;99872.53;4965175;28;20212;-65
2022/08/17 01:27:13;;;;;;;0.10;0.10;;;;;;;18.82;100.00;99888.97;4930920;28;20213;-65
2022/08/17 01:29:47;;;;;;;0.20;0.20;;;18.90;99.90;;;18.78;100.00;99890.88;4915866;29;20214;-66
2022/08/17 01:32:15;;;;;;;0.20;0.20;;;;;;;18.90;100.00;99884.22;4958364;28;20221;-65
2022/08/17 01:34:44;;;;;;;0.57;0.47;;;;;;;18.42;100.00;99876.84;4941698;28;20220;-65
2022/08/17 01:37:20;;;;;;;0.43;0.43;;;18.70;99.90;;;18.62;100.00;99878.03;4970836;28;20574;-65
2022/08/17 01:39:50;;;;;;;0.70;0.70;;;;;;;18.77;100.00;99890.94;4941106;28;20548;-65
2022/08/17 01:42:42;;;;;;;0.45;0.45;;;18.80;99.90;;;18.76;100.00;99878.47;4920779;28;20201;-65
2022/08/17 01:45:46;;;;;;;0.30;0.30;;;18.80;99.90;;;18.73;100.00;99881.25;4938219;28;20232;-65
2022/08/17 01:48:15;;;;;;;0.65;0.65;;;18.80;99.90;;;18.64;100.00;99887.78;4943508;28;20665;-65
2022/08/17 01:50:45;;;;;;;0.20;0.20;;;18.70;99.90;;;18.62;100.00;99896.78;4942735;29;20221;-65
2022/08/17 01:53:21;;;;;;;0.20;0.20;;;18.70;99.90;;;18.64;100.00;99889.59;4951844;28;20237;-65
2022/08/17 01:55:59;;;;;;;0.20;0.20;;;19.30;99.90;;;18.67;100.00;99886.81;4958291;28;20244;-65
2022/08/17 01:58:27;;;;;;;0.30;0.30;;;;;;;18.69;100.00;99874.25;4958421;28;20637;-65
2022/08/17 02:00:55;;;;;;;0.20;0.20;;;;;;;18.70;100.00;99902.78;4907325;28;20217;-65
2022/08/17 02:03:29;;;;;;;0.40;0.40;;;18.60;99.90;;;18.45;100.00;99914.25;4943017;28;20202;-66
2022/08/17 02:05:57;;;;;;;0.40;0.40;;;;;;;18.23;100.00;99918.50;4938431;28;20225;-65
2022/08/17 02:08:27;;;;;;;0.30;0.30;;;;;;;18.09;100.00;99899.28;4908262;28;20224;-65
2022/08/17 02:11:13;;;;;;;0.38;0.38;;;18.40;99.90;;;18.23;100.00;99919.38;4916018;28;20213;-65
2022/08/17 02:13:47;;;;;;;0.28;0.28;;;18.40;99.90;;;18.31;100.00;99918.28;4971123;28;20236;-65
2022/08/17 02:16:24;;;;;;;0.50;0.50;;;;;;;18.17;100.00;99921.34;4934052;28;20245;-65
2022/08/17 02:18:53;;;;;;;0.40;0.40;;;;;;;18.22;100.00;99924.78;4903308;28;20587;-65
2022/08/17 02:21:21;;;;;;;0.50;0.50;;;;;;;18.31;100.00;99931.66;4941965;28;20212;-65
2022/08/17 02:23:49;;;;;;;0.40;0.40;;;18.40;99.90;;;18.16;100.00;99925.81;4918742;28;20209;-65
2022/08/17 02:26:17;;;;;;;0.40;0.40;;;;;;;18.09;100.00;99934.94;4919254;28;20224;-65
2022/08/17 02:28:53;;;;;;;0.30;0.30;;;;;;;18.18;100.00;99915.94;4936718;28;20228;-65
2022/08/17 02:31:21;;;;;;;0.40;0.40;;;;;;;18.22;100.00;99930.13;4937760;28;20228;-65
2022/08/17 02:33:49;;;;;;;0.50;0.50;;;;;;;18.11;100.00;99950.94;4922656;28;20591;-65
2022/08/17 02:36:33;;;;;;;0.55;0.55;;;18.30;99.90;;;18.12;100.00;99945.56;4918643;28;20244;-65
2022/08/17 02:39:05;;;;;;;0.93;0.85;;;18.20;99.90;;;18.19;100.00;99964.97;4919546;28;20213;-65
2022/08/17 02:41:33;;;;;;;0.40;0.40;;;;;;;18.44;100.00;99935.69;4947027;28;20216;-65
2022/08/17 02:44:04;;;;;;;0.30;0.30;;;;;;;18.37;100.00;99929.66;4946026;28;20215;-65
2022/08/17 02:46:32;;;;;;;0.30;0.30;;;;;;;18.31;100.00;99923.63;4917367;28;20728;-65
2022/08/17 02:49:01;;;;;;;0.22;0.22;;;;;;;18.36;100.00;99935.06;4913653;28;20205;-65
2022/08/17 02:51:29;;;;;;;0.65;0.65;;;18.10;99.90;;;18.40;100.00;99936.72;4953212;28;20221;-65
2022/08/17 02:53:58;;;;;;;0.40;0.40;;;;;;;18.36;100.00;99937.75;4952253;28;20225;-65
2022/08/17 02:56:45;;;;;;;0.30;0.30;;;18.60;99.90;;;18.31;100.00;99927.16;4938255;28;20238;-65
2022/08/17 02:59:14;;;;;;;0.40;0.40;;;;;;;18.19;100.00;99933.75;4936181;28;20217;-65
2022/08/17 03:01:42;;;;;;;0.57;0.57;;;;;;;18.55;100.00;99904.09;4953718;28;20209;-65
2022/08/17 03:04:10;;;;;;;1.10;0.90;;;18.20;99.90;;;18.35;100.00;99930.63;4937924;28;20201;-65
2022/08/17 03:06:38;;;;;;;0.80;0.80;;;;;;;18.49;100.00;99923.06;4938001;28;20228;-65
2022/08/17 03:09:06;;;;;;;0.50;0.50;;;;;;;18.73;100.00;99905.34;4943572;28;20221;-65
2022/08/17 03:11:34;;;;;;;0.68;0.68;;;18.10;99.90;;;18.71;100.00;99909.88;4893826;29;20213;-65
2022/08/17 03:14:02;;;;;;;0.70;0.70;;;;;;;18.60;100.00;99914.69;4944392;28;20229;-65
2022/08/17 03:16:30;;;;;;;0.90;0.90;;;;;;;18.67;100.00;99935.00;4905097;28;20253;-65
2022/08/17 03:19:00;;;;;;;0.50;0.50;;;;;;;18.54;100.00;99929.13;4925560;29;20204;-65
2022/08/17 03:21:28;;;;;;;0.52;0.52;;;;;;;18.49;100.00;99920.38;4962729;28;20232;-65
2022/08/17 03:23:56;;;;;;;0.88;0.80;;;;;;;18.32;100.00;99931.59;4906736;28;20212;-65
2022/08/17 03:26:26;;;;;;;0.63;0.60;;;;;;;18.34;100.00;99939.59;4941847;28;20263;-65
2022/08/17 03:28:56;;;;;;;1.52;1.10;;;;;;;18.32;100.00;99960.19;4935223;28;20609;-65
2022/08/17 03:31:24;;;;;;;0.55;0.50;;;18.50;99.90;;;18.26;100.00;99973.75;4908938;29;20210;-65
2022/08/17 03:33:52;;;;;;;0.82;0.80;;;;;;;18.30;100.00;99970.94;4966097;28;20234;-65
2022/08/17 03:36:21;;;;;;;0.70;0.70;;;;;;;18.34;100.00;99982.41;4901574;28;20217;-65
2022/08/17 03:38:48;;;;;;;0.70;0.70;;;18.60;99.90;;;18.39;100.00;99943.00;4924458;28;20213;-65
2022/08/17 03:41:18;;;;;;;1.27;0.63;;;;;;;18.40;100.00;99951.00;4953436;28;20217;-65
2022/08/17 03:43:46;;;;;;;0.52;0.52;;;;;;;18.36;100.00;99960.03;4937248;28;20210;-65
2022/08/17 03:57:31;;;;;;;0.80;0.80;;;;;;;18.08;100.00;100050.91;4953967;28;20205;-65
2022/08/17 03:59:59;;;;;;;0.80;0.80;;;;;;;18.31;100.00;100039.59;4931515;28;20209;-65
2022/08/17 04:02:32;;;;;;;0.70;0.60;;;18.10;99.90;;;18.45;100.00;100025.81;4926277;28;20682;-65
2022/08/17 04:05:01;;;;;;;0.90;0.80;;;;;;;18.63;100.00;100003.88;4935226;28;20228;-65
2022/08/17 04:07:30;;;;;;;0.82;0.80;;;19.00;99.90;;;18.73;100.00;100002.66;4955263;28;20581;-65
2022/08/17 04:09:59;;;;;;;0.60;0.60;;;;;;;18.79;100.00;100014.97;4913369;28;20205;-65
2022/08/17 04:12:29;;;;;;;0.80;0.80;;;18.50;99.90;;;18.70;100.00;100037.56;4915086;28;20224;-65
2022/08/17 04:14:58;;;;;;;0.40;0.40;;;18.70;99.90;;;18.70;100.00;100026.84;4903397;28;20225;-65
2022/08/17 04:17:27;;;;;;;0.90;0.80;;;18.60;99.90;;;18.79;100.00;100021.22;4917208;28;20216;-65
2022/08/17 04:19:57;;;;;;;1.33;1.10;;;;;;;19.06;100.00;100032.88;4913892;28;20198;-65
2022/08/17 04:22:26;;;;;;;0.40;0.40;;;18.70;99.90;;;19.22;100.00;100027.88;4928945;28;20209;-65
2022/08/17 04:25:08;;;;;;;1.42;1.20;;;18.80;99.90;;;19.23;100.00;100029.63;4929583;28;20232;-65
2022/08/17 04:27:36;;;;;;;1.52;1.17;;;;;;;19.26;100.00;100028.66;4946647;28;20626;-65
2022/08/17 04:30:08;;;;;;;1.75;1.25;;;19.10;99.90;;;19.31;100.00;100005.25;4908993;28;20206;-65
2022/08/17 04:33:08;;;;;;;1.23;1.00;;;18.70;99.90;;;19.29;100.00;100007.09;4949892;28;20216;-66
2022/08/17 04:35:45;;;;;;;1.38;1.10;;;19.50;99.90;;;19.21;100.00;100035.97;4936216;28;20225;-66
2022/08/17 04:38:20;;;;;;;3.35;1.73;;;18.90;99.90;;;19.26;100.00;100009.91;4945154;28;20204;-65
2022/08/17 04:43:38;;;;;;;2.28;1.75;;;19.00;99.90;;;19.33;100.00;100024.84;4963225;28;20213;-66
2022/08/17 04:46:16;;;;;;;2.13;1.38;;;18.90;99.90;;;19.23;100.00;100026.09;4928041;28;20232;-65
2022/08/17 04:48:49;;;;;;;1.77;1.38;;;19.00;99.90;;;19.31;100.00;100011.50;4934577;28;20212;-66
2022/08/17 04:51:46;;;;;;;2.05;1.45;;;18.70;99.90;;;19.32;100.00;100031.13;4947801;28;20248;-65
2022/08/17 04:54:23;;;;;;;2.03;1.33;;;;;;;19.37;100.00;100030.06;4949902;28;20232;-66
2022/08/17 04:56:51;;;;;;;2.13;1.77;;;;;;;19.37;100.00;100018.44;4923269;28;20232;-65
2022/08/17 04:59:21;;;;;;;1.45;1.10;;;19.10;99.90;;;19.33;100.00;100031.09;4921256;28;20212;-66
2022/08/17 05:01:51;;;;;;;1.40;1.23;;;19.00;99.90;;;19.25;100.00;100041.19;4919845;28;20216;-66
2022/08/17 05:04:23;;;;;;;2.22;1.58;;;19.00;99.90;;;19.20;100.00;100032.41;4917386;28;20202;-66
2022/08/17 05:07:03;;;;;;;1.40;1.10;;;19.00;99.90;;;19.25;100.00;100040.31;4954810;28;20209;-66
2022/08/17 05:09:31;;;;;;;1.95;1.10;;;;;;;19.25;100.00;100057.28;4941954;28;20209;-65
2022/08/17 05:12:01;;;;;;;3.92;2.28;;;19.00;99.90;;;19.30;100.00;100059.81;4938001;28;20666;-65
2022/08/17 05:14:29;;;;;;;2.08;1.52;;;19.50;99.90;;;19.38;100.00;100047.91;4940576;28;20236;-66
2022/08/17 05:17:01;;;;;;;1.20;0.90;;;;;;;19.34;100.00;100045.38;4969981;28;20225;-65
2022/08/17 05:19:36;;;;;;;1.60;1.15;;;;;;;19.41;100.00;100050.47;4976265;28;20204;-65
2022/08/17 05:22:05;;;;;;;2.35;1.52;;;;;;;19.46;100.00;100048.53;4934414;28;20896;-66
2022/08/17 05:24:34;;;;;;;1.42;1.10;;;;;;;19.51;100.00;100064.50;4926649;28;20201;-66
2022/08/17 05:27:10;;;;;;;1.58;1.17;;;;;;;19.60;100.00;100049.94;4944305;28;20224;-65
2022/08/17 05:29:46;;;;;;;1.38;1.10;;;;;;;19.69;100.00;100039.75;4968140;28;20205;-66
2022/08/17 05:32:14;;;;;;;2.67;1.67;;;;;;;19.75;100.00;100034.19;4954763;28;20197;-65
2022/08/17 05:35:03;;;;;;;1.42;1.15;;;;;;;19.78;100.00;100035.88;4943636;28;20237;-65
2022/08/17 05:37:31;;;;;;;1.58;1.38;;;;;;;19.77;100.00;100039.50;4936525;28;20213;-65
2022/08/17 05:39:59;;;;;;;2.13;1.60;;;;;;;19.74;100.00;100051.22;4938628;28;20674;-65
2022/08/17 05:42:27;;;;;;;1.08;0.90;;;19.00;99.90;;;19.71;100.00;100067.41;4956734;28;20213;-66
2022/08/17 05:44:57;;;;;;;0.70;0.70;;;19.80;99.90;;;19.65;100.00;100069.41;4940072;28;20197;-65
2022/08/17 05:47:26;;;;;;;0.40;0.40;;;;;;;19.69;100.00;100069.28;4963439;28;20205;-65
2022/08/17 05:49:54;;;;;;;0.60;0.60;;;;;;;19.72;100.00;100073.66;4907552;28;20213;-66
2022/08/17 05:53:07;;;;;;;0.50;0.50;;;19.60;99.90;;;19.74;100.00;100071.78;4936563;28;20209;-65
2022/08/17 05:55:53;;;;;;;0.50;0.50;;;19.90;99.90;;;19.68;100.00;100070.19;4946499;28;20241;-65
2022/08/17 05:58:50;;;;;;;0.50;0.50;;;19.70;99.90;;;19.73;100.00;100064.69;4929630;28;20205;-65
2022/08/17 06:01:59;;;;;;;1.00;0.90;;;19.60;99.90;;;19.83;100.00;100066.09;4919154;28;20293;-65
2022/08/17 06:04:56;;;;;;;1.35;1.10;;;19.60;99.90;;;19.83;100.00;100065.22;4954133;28;20230;-65
2022/08/17 06:07:36;;;;;;;2.42;1.73;;;20.00;99.90;;;19.85;100.00;100071.41;4951314;29;20671;-65
2022/08/17 06:10:17;;;;;;;2.03;1.42;;;19.70;99.90;;;19.94;100.00;100046.94;4939387;28;20205;-66
2022/08/17 06:13:03;;;;;;;3.05;1.98;;;20.20;99.90;;;19.98;100.00;100059.31;4953582;28;20217;-65
2022/08/17 06:15:43;;;;;;;2.55;1.65;;;19.60;99.90;;;19.88;100.00;100069.50;4970537;28;20232;-66
2022/08/17 06:18:12;;;;;;;0.68;0.47;;;;;;;19.80;100.00;100085.88;4970403;28;20201;-65
2022/08/17 06:21:01;;;;;;;2.28;1.52;;;19.60;99.90;;;19.85;100.00;100107.19;4940136;28;20209;-66
2022/08/17 06:23:43;;;;;;;3.05;1.88;;;19.70;99.90;;;19.91;100.00;100119.53;4921974;28;20225;-65
2022/08/17 06:26:21;;;;;;;2.75;1.70;;;19.70;99.90;;;19.90;100.00;100105.22;4939184;28;20705;-65
2022/08/17 06:29:07;;;;;;;2.47;1.65;;;19.80;99.90;;;19.85;100.00;100104.50;4955183;28;20849;-66
2022/08/17 06:31:46;;;;;;;1.40;0.85;;;;;;;19.84;100.00;100094.69;4939011;28;20204;-65
2022/08/17 06:34:14;;;;;;;1.98;1.27;;;;;;;19.86;100.00;100084.78;4931969;28;20699;-66
2022/08/17 06:37:02;;;;;;;1.65;1.13;;;19.70;99.90;;;19.84;100.00;100077.72;4936539;28;20229;-65
2022/08/17 06:40:07;;;;;;;2.13;1.50;;;20.00;99.90;;;19.90;100.00;100078.38;4954135;28;20209;-66
2022/08/17 06:42:46;;;;;;;2.20;1.70;;;19.80;99.90;;;19.81;100.00;100097.47;4967901;28;20793;-65
2022/08/17 06:45:48;;;;;;;2.83;1.80;;;19.50;99.90;;;19.75;100.00;100119.16;4969855;28;20221;-65
2022/08/17 06:48:43;;;;;;;2.13;1.50;;;19.80;99.90;;;19.71;100.00;100114.81;4937109;28;20216;-65
2022/08/17 06:51:23;;;;;;;2.20;1.50;;;19.30;99.90;;;19.78;100.00;100138.72;4937393;28;20205;-65
2022/08/17 06:54:04;;;;;;;2.33;1.50;;;19.70;99.90;;;19.72;100.00;100143.41;4937569;29;20217;-65
2022/08/17 06:57:00;;;;;;;2.92;1.75;;;19.60;99.90;;;19.84;100.00;100150.16;4919406;29;20225;-65
2022/08/17 06:59:44;;;;;;;4.50;1.92;;;19.80;99.90;;;19.79;100.00;100147.63;4952926;28;20681;-66
2022/08/17 07:02:48;;;;;;;4.25;2.28;;;19.70;99.90;;;19.81;100.00;100089.44;4953628;28;20205;-66
2022/08/17 07:05:54;;;;;;;4.55;2.15;;;19.90;99.90;;;19.91;100.00;100096.25;4941393;28;20237;-66
2022/08/17 07:09:01;;;;;;;11.55;4.70;;;19.80;99.90;;;20.04;100.00;100150.38;4950587;28;20217;-66
2022/08/17 07:11:58;;;;;;;3.55;2.00;;;19.90;99.90;;;19.97;100.00;100163.13;4961297;28;20220;-66
2022/08/17 07:14:52;;;;;;;3.60;2.13;;;19.80;99.90;;;19.88;100.00;100152.69;4948639;28;20227;-66
2022/08/17 07:17:23;;;;;;;2.88;1.63;;;19.90;99.90;;;19.78;100.00;100148.56;4924853;28;20205;-66
2022/08/17 07:20:23;;;;;;;3.30;1.75;;;;;;;19.89;100.00;100164.31;4942844;28;20213;-66
2022/08/17 07:23:07;;;;;;;3.38;2.45;;;19.70;99.90;;;19.89;100.00;100169.69;4921153;29;20213;-66
2022/08/17 07:25:35;;;;;;;1.75;1.15;;;;;;;19.79;100.00;100180.72;4934047;28;20221;-66
2022/08/17 07:28:06;;;;;;;2.13;1.33;;;20.20;99.90;;;19.92;100.00;100196.41;4947316;28;20198;-66
2022/08/17 07:30:42;;;;;;;0.98;0.70;;;19.90;99.90;;;19.93;100.00;100191.00;4936062;28;20217;-66
2022/08/17 07:33:26;;;;;;;1.83;1.35;;;19.80;99.90;;;19.90;100.00;100198.28;4951385;28;20220;-66
2022/08/17 07:35:56;;;;;;;1.88;1.38;;;20.00;99.90;;;19.93;100.00;100200.84;4937193;28;20237;-66
2022/08/17 07:38:33;;;;;;;1.58;1.20;;;20.00;99.90;;;19.98;100.00;100215.88;4936883;28;20209;-66
2022/08/17 07:41:06;;;;;;;1.50;1.10;;;20.10;99.90;;;20.00;100.00;100208.66;4936010;28;20210;-66
2022/08/17 07:43:40;;;;;;;1.33;1.00;;;20.30;99.90;;;19.92;100.00;100204.47;4919217;28;20216;-65
2022/08/17 07:49:36;;;;;;;1.55;1.25;;;19.50;99.90;;;19.83;100.00;100191.34;4937213;28;20213;-65
2022/08/17 07:52:26;;;;;;;2.00;1.40;;;19.80;99.90;;;19.81;100.00;100194.97;4949297;28;20201;-65
2022/08/17 07:55:33;;;;;;;3.90;1.98;;;19.90;99.90;;;19.83;100.00;100208.34;4939934;28;20245;-65
2022/08/17 07:58:02;;;;;;;2.30;1.48;;;;;;;19.91;100.00;100232.22;4937343;28;20201;-65
2022/08/17 08:00:32;;;;;;;2.35;1.65;;;;;;;19.99;100.00;100270.44;4920657;28;20217;-65
2022/08/17 08:03:30;;;;;;;3.45;1.98;;;19.90;99.90;;;19.91;100.00;100286.78;4905926;28;20224;-65
2022/08/17 08:06:01;;;;;;;3.17;1.85;;;19.80;99.90;;;19.76;100.00;100263.13;4923732;29;20725;-66
2022/08/17 08:08:37;;;;;;;1.77;1.13;;;19.80;99.90;;;19.99;100.00;100265.06;4952028;28;20205;-65
2022/08/17 08:11:14;;;;;;;2.22;1.33;;;20.00;99.90;;;19.93;100.00;100290.31;4925829;28;20213;-66
2022/08/17 08:13:44;;;;;;;3.47;1.90;;;19.90;99.90;;;20.01;100.00;100274.84;4951896;28;20209;-66
2022/08/17 08:16:26;;;;;;;2.38;1.67;;;19.50;99.90;;;20.29;100.00;100282.84;4945859;28;20232;-66
2022/08/17 08:19:00;;;;;;;6.75;2.75;;;20.10;99.90;;;20.25;100.00;100240.94;4950529;28;20205;-66
2022/08/17 08:21:50;;;;;;;3.78;1.95;;;;;;;20.31;100.00;100223.72;4964287;28;20224;-66
2022/08/17 08:24:54;;;;;;;4.47;2.28;;;20.20;99.90;;;20.56;100.00;100229.16;4920971;28;20216;-66
2022/08/17 08:27:43;;;;;;;4.78;2.25;;;20.40;99.90;;;20.87;100.00;100242.41;4935053;28;20209;-66
2022/08/17 08:30:20;;;;;;;4.15;2.20;;;20.70;99.90;;;21.04;100.00;100232.78;4921084;28;20284;-66
2022/08/17 08:33:19;;;;;;;2.97;1.67;;;20.80;99.90;;;21.20;100.00;100257.31;4944642;29;20216;-66
2022/08/17 08:35:58;;;;;;;5.43;2.67;;;20.20;99.90;;;21.22;100.00;100263.53;4932750;29;20226;-66
2022/08/17 08:38:47;;;;;;;4.65;2.42;;;21.00;99.90;;;21.35;100.00;100263.94;4942226;28;20657;-66
2022/08/17 08:41:37;;;;;;;5.05;2.35;;;21.10;99.90;;;21.34;100.00;100252.31;4966745;28;20213;-66
2022/08/17 08:44:22;;;;;;;6.00;3.03;;;;;;;21.51;100.00;100261.56;4955245;28;20198;-66
2022/08/17 08:47:13;;;;;;;5.38;2.65;;;;;;;21.63;100.00;100244.94;4937957;28;20699;-66
2022/08/17 08:50:20;;;;;;;4.03;2.05;;;21.00;99.90;;;21.73;100.00;100251.69;4915566;29;20662;-66
2022/08/17 08:53:42;;;;;;;4.90;2.40;;;21.80;99.90;;;21.81;100.00;100237.94;4943912;28;20209;-66
2022/08/17 08:56:43;;;;;;;5.55;2.95;;;21.60;99.90;;;21.94;100.00;100249.97;4960110;28;20291;-66
2022/08/17 08:59:44;;;;;;;4.55;2.30;;;21.30;99.90;;;22.15;100.00;100250.97;4930940;28;20213;-66
2022/08/17 09:02:58;;;;;;;3.25;1.75;;;21.90;99.90;;;22.09;100.00;100225.13;4928172;28;20205;-66
2022/08/17 09:05:35;;;;;;;3.50;1.88;;;;;;;22.24;100.00;100259.53;4972116;28;20247;-66
2022/08/17 09:08:38;;;;;;;3.47;1.90;;;22.00;99.90;;;22.14;100.00;100246.50;4966597;28;20201;-66
2022/08/17 09:11:29;;;;;;;7.38;2.72;;;22.10;99.90;;;22.16;100.00;100271.56;4954412;28;20215;-66
2022/08/17 09:14:09;;;;;;;7.35;3.03;;;22.20;99.90;;;22.06;100.00;100246.81;4942336;28;20209;-66
2022/08/17 09:17:24;;;;;;;6.13;2.58;;;21.80;99.90;;;22.27;100.00;100240.56;4962515;28;20614;-66
2022/08/17 09:20:05;;;;;;;6.30;2.40;;;22.20;99.90;;;22.48;100.00;100243.28;4930236;28;20213;-66
2022/08/17 09:22:42;;;;;;;5.78;2.20;;;22.30;99.90;;;22.55;100.00;100244.75;4935240;28;20193;-66
2022/08/17 09:25:17;;;;;;;12.77;4.43;;;22.40;99.90;;;22.64;100.00;100234.44;4922562;28;20240;-66
2022/08/17 09:28:15;;;;;;;7.68;2.85;;;22.60;99.90;;;22.62;100.00;100213.91;4956030;28;20201;-66
2022/08/17 09:30:50;;;;;;;4.65;1.85;;;22.60;99.90;;;22.71;100.00;100208.09;4922848;29;20216;-66
2022/08/17 09:33:25;;;;;;;7.95;2.90;;;22.70;99.90;;;22.76;100.00;100214.16;4955618;28;20215;-66
2022/08/17 09:36:20;;;;;;;9.68;3.30;;;22.90;99.90;;;22.80;100.00;100217.63;4937285;28;20232;-66
2022/08/17 09:39:12;;;;;;;6.13;2.50;;;23.60;99.90;;;22.68;100.00;100232.50;4953594;28;20209;-66
2022/08/17 09:41:57;;;;;;;8.43;2.90;;;22.50;99.90;;;22.74;100.00;100243.00;4945063;28;20213;-66
2022/08/17 09:44:44;;;;;;;5.95;2.45;;;;;;;22.76;100.00;100233.03;4946757;28;20208;-65
2022/08/17 09:47:24;;;;;;;6.15;2.63;;;22.80;99.90;;;22.67;100.00;100217.28;4948012;28;20204;-66
2022/08/17 09:50:00;;;;;;;4.40;2.05;;;22.70;99.90;;;22.42;100.00;100209.38;4966179;28;20216;-66
2022/08/17 09:52:30;;;;;;;4.15;2.10;;;22.50;99.90;;;22.30;100.00;100223.38;4919305;28;20205;-66
2022/08/17 09:55:00;;;;;;;5.22;2.40;;;22.20;99.90;;;22.48;100.00;100244.16;4920268;28;20232;-66
2022/08/17 09:57:34;;;;;;;4.45;2.25;;;;;;;22.60;100.00;100248.13;4921519;28;20228;-66
2022/08/17 10:00:23;;;;;;;4.30;2.28;;;22.60;99.90;;;22.62;100.00;100241.72;4962772;28;20218;-66
2022/08/17 10:03:15;;;;;;;3.75;1.75;;;22.60;99.90;;;22.54;100.00;100265.44;4936490;28;20212;-66
2022/08/17 10:06:14;;;;;;;5.05;2.63;;;22.50;99.90;;;22.44;100.00;100266.78;4953452;28;20236;-66
2022/08/17 10:09:07;;;;;;;3.47;2.53;;;22.60;99.90;;;22.53;100.00;100279.88;4943474;28;20200;-66
2022/08/17 10:15:08;;;;;;;5.05;2.60;;;22.60;99.90;;;22.75;100.00;100284.34;4948535;28;20201;-66
2022/08/17 10:18:20;;;;;;;4.15;2.22;;;23.00;99.90;;;22.82;100.00;100281.34;4920777;28;20584;-67
2022/08/17 10:27:12;;;;;;;3.67;1.83;;;23.00;99.90;;;23.22;100.00;100272.34;4962588;28;20236;-68
2022/08/17 10:29:51;;;;;;;3.65;1.85;;;;;;;23.28;100.00;100276.56;4923571;28;20208;-68
2022/08/17 10:32:31;;;;;;;3.17;2.15;;;23.20;99.90;;;23.38;100.00;100266.22;4934027;29;20213;-67
2022/08/17 10:35:24;;;;;;;2.95;1.55;;;23.00;99.90;;;23.70;100.00;100275.59;4934936;28;20229;-67
2022/08/17 10:38:27;;;;;;;3.17;1.95;;;23.50;99.90;;;23.89;100.00;100273.75;4967758;28;20247;-68
2022/08/17 10:41:28;;;;;;;3.50;2.00;;;23.20;99.90;;;23.75;100.00;100223.13;4934340;28;20201;-67
2022/08/17 10:44:22;;;;;;;2.20;1.60;;;24.50;99.90;;;24.13;100.00;100247.38;4952758;28;20197;-67
2022/08/17 10:47:14;;;;;;;2.08;1.00;;;23.80;99.90;;;24.25;100.00;100235.94;4951909;28;20208;-66
2022/08/17 10:49:52;;;;;;;2.03;1.00;;;24.10;99.90;;;24.25;100.00;100198.97;4953060;28;20665;-68
2022/08/17 10:52:29;;;;;;;2.33;1.20;;;24.20;99.90;;;24.31;100.00;100184.31;4941452;28;20212;-67
2022/08/17 10:55:00;;;;;;;2.83;1.60;;;;;;;24.37;100.00;100189.41;4965925;28;20228;-67
2022/08/17 10:57:37;;;;;;;1.90;1.38;;;24.40;99.90;;;24.31;100.00;100199.66;4971045;28;20232;-67
2022/08/17 11:00:19;;;;;;;0.98;0.80;;;;;;;24.35;100.00;100212.06;4940913;28;20204;-67
2022/08/17 11:02:56;;;;;;;0.70;0.60;;;24.30;99.90;;;24.59;100.00;100218.91;4951770;28;20216;-67
2022/08/17 11:05:27;;;;;;;0.73;0.60;;;24.60;99.90;;;24.45;100.00;100194.41;4934332;29;20606;-67
2022/08/17 11:08:14;;;;;;;0.95;0.73;;;24.50;99.90;;;24.43;100.00;100183.69;4946622;28;20201;-67
2022/08/17 11:11:11;;;;;;;1.30;1.00;;;24.40;99.90;;;24.77;100.00;100211.69;4950568;28;20204;-68
2022/08/17 11:14:03;;;;;;;1.40;0.98;;;25.50;99.90;;;25.36;100.00;100197.63;4927347;28;20209;-67
2022/08/17 11:16:58;;;;;;;1.08;0.80;;;25.20;99.90;;;25.37;100.00;100157.91;4953536;28;20232;-67
2022/08/17 11:20:00;;;;;;;1.40;0.98;;;25.20;99.90;;;25.57;100.00;100167.59;4949243;28;20204;-67
2022/08/17 11:22:45;;;;;;;0.70;0.60;;;25.20;99.90;;;25.45;97.82;100125.84;4936381;28;20212;-67
2022/08/17 11:25:21;;;;;;;0.88;0.63;;;25.80;99.90;;;25.07;97.20;100073.91;4932444;28;20228;-68
2022/08/17 11:28:19;;;;;;;3.47;1.75;;;25.00;99.90;;;24.82;97.50;100058.16;4932806;29;20209;-68
2022/08/17 11:30:54;;;;;;;1.00;0.75;;;24.90;99.90;;;24.73;100.00;100069.47;4927894;28;20216;-67
2022/08/17 11:33:28;;;;;;;2.33;1.15;;;24.90;99.90;;;24.80;100.00;100087.09;4952269;28;20202;-69
2022/08/17 11:36:44;;;;;;;2.83;1.40;;;25.10;99.90;;;24.60;100.00;100047.59;4968741;28;20237;-69
2022/08/17 11:39:27;;;;;;;2.13;1.27;;;24.70;99.90;;;24.54;100.00;100048.81;4933297;28;20213;-70
2022/08/17 11:42:25;;;;;;;2.05;1.27;;;24.60;99.90;;;24.61;100.00;100057.47;4955586;28;20204;-69
2022/08/17 11:45:26;;;;;;;2.03;1.30;;;24.60;99.90;;;24.78;100.00;100060.16;4944137;28;20227;-70
2022/08/17 11:51:32;;;;;;;2.75;1.65;;;25.50;99.90;;;24.74;100.00;100066.69;4945422;28;20215;-69
2022/08/17 11:54:06;;;;;;;2.83;1.38;;;;;;;24.81;100.00;100064.50;4946523;28;20197;-68